createdAt,value
2022-12-20T00:00:14.767Z,100736.63
2022-12-20T00:02:42.662Z,100746.84
2022-12-20T00:05:10.481Z,100732.38
2022-12-20T00:07:38.458Z,100721.69
2022-12-20T00:10:06.264Z,100724.56
2022-12-20T00:12:34.013Z,100716.56
2022-12-20T00:15:01.931Z,100734.97
2022-12-20T00:17:29.865Z,100718.97
2022-12-20T00:19:57.725Z,100726.28
2022-12-20T00:22:25.483Z,100733.13
2022-12-20T00:24:53.257Z,100730.56
2022-12-20T00:27:21.014Z,100728.88
2022-12-20T00:29:48.917Z,100729.88
2022-12-20T00:32:16.701Z,100726.50
2022-12-20T00:34:44.460Z,100717.28
2022-12-20T00:37:12.258Z,100712.69
2022-12-20T00:39:39.988Z,100703.00
2022-12-20T00:42:07.846Z,100706.75
2022-12-20T00:44:35.670Z,100703.19
2022-12-20T00:47:03.551Z,100714.94
2022-12-20T00:49:31.354Z,100716.97
2022-12-20T00:51:59.158Z,100728.00
2022-12-20T00:54:26.930Z,100719.00
2022-12-20T00:56:54.702Z,100737.19
2022-12-20T00:59:22.525Z,100733.63
2022-12-20T01:01:50.454Z,100738.03
2022-12-20T01:04:18.528Z,100733.63
2022-12-20T01:06:46.427Z,100734.47
2022-12-20T01:09:14.181Z,100728.19
2022-12-20T01:11:41.904Z,100712.03
2022-12-20T01:14:09.740Z,100718.31
2022-12-20T01:16:37.779Z,100722.91
2022-12-20T01:19:05.632Z,100728.34
2022-12-20T01:21:33.399Z,100729.38
2022-12-20T01:24:01.178Z,100727.50
2022-12-20T01:26:29.016Z,100721.22
2022-12-20T01:28:56.982Z,100727.63
2022-12-20T01:31:24.858Z,100720.50
2022-12-20T01:33:52.810Z,100728.66
2022-12-20T01:36:20.625Z,100730.56
2022-12-20T01:38:48.493Z,100734.97
2022-12-20T01:41:16.347Z,100745.16
2022-12-20T01:43:44.106Z,100738.88
2022-12-20T01:46:12.055Z,100748.91
2022-12-20T01:48:39.853Z,100740.06
2022-12-20T01:51:07.642Z,100755.53
2022-12-20T01:53:35.539Z,100750.94
2022-12-20T01:56:03.300Z,100745.50
2022-12-20T01:58:31.077Z,100747.56
2022-12-20T02:07:18.755Z,100743.97
2022-12-20T02:09:46.520Z,100740.25
2022-12-20T02:12:14.512Z,100750.25
2022-12-20T02:14:42.275Z,100748.56
2022-12-20T02:17:10.288Z,100739.56
2022-12-20T02:19:38.399Z,100738.53
2022-12-20T02:22:06.182Z,100732.41
2022-12-20T02:24:33.982Z,100730.56
2022-12-20T02:27:01.798Z,100736.84
2022-12-20T02:29:29.725Z,100735.13
2022-12-20T02:31:57.590Z,100738.72
2022-12-20T02:34:26.007Z,100731.41
2022-12-20T02:36:53.772Z,100732.25
2022-12-20T02:39:21.539Z,100726.81
2022-12-20T02:41:49.409Z,100721.38
2022-12-20T02:44:31.051Z,100724.94
2022-12-20T02:46:58.831Z,100723.06
2022-12-20T02:49:26.580Z,100721.38
2022-12-20T02:51:54.415Z,100719.50
2022-12-20T02:54:22.257Z,100711.19
2022-12-20T02:56:50.270Z,100706.44
2022-12-20T02:59:18.056Z,100705.53
2022-12-20T03:01:45.989Z,100708.47
2022-12-20T03:04:13.925Z,100700.97
2022-12-20T03:06:41.821Z,100699.09
2022-12-20T03:09:09.595Z,100696.72
2022-12-20T03:11:37.563Z,100688.56
2022-12-20T03:14:05.333Z,100686.69
2022-12-20T03:16:33.172Z,100686.84
2022-12-20T03:19:00.976Z,100680.41
2022-12-20T03:21:28.740Z,100687.03
2022-12-20T03:23:56.494Z,100692.50
2022-12-20T03:26:24.301Z,100685.53
2022-12-20T03:28:52.163Z,100685.69
2022-12-20T03:31:20.023Z,100687.72
2022-12-20T03:33:47.946Z,100693.50
2022-12-20T03:36:15.727Z,100689.41
2022-12-20T03:38:43.508Z,100691.47
2022-12-20T03:41:11.414Z,100690.59
2022-12-20T03:43:39.203Z,100688.75
2022-12-20T03:46:07.205Z,100687.03
2022-12-20T03:48:34.957Z,100685.34
2022-12-20T03:51:02.783Z,100675.31
2022-12-20T03:53:30.731Z,100672.59
2022-12-20T03:55:58.549Z,100670.72
2022-12-20T03:58:26.386Z,100661.03
2022-12-20T04:00:54.159Z,100660.03
2022-12-20T04:03:22.063Z,100672.78
2022-12-20T04:05:49.792Z,100668.19
2022-12-20T04:08:17.831Z,100661.91
2022-12-20T04:10:59.398Z,100655.59
2022-12-20T04:13:27.487Z,100672.59
2022-12-20T04:15:59.989Z,100663.59
2022-12-20T04:18:28.572Z,100663.75
2022-12-20T04:20:56.453Z,100662.75
2022-12-20T04:23:24.223Z,100663.41
2022-12-20T04:25:51.993Z,100665.28
2022-12-20T04:28:19.726Z,100665.28
2022-12-20T04:30:47.586Z,100671.56
2022-12-20T04:33:15.376Z,100659.84
2022-12-20T04:35:43.197Z,100667.16
2022-12-20T04:38:10.930Z,100658.84
2022-12-20T04:40:38.702Z,100655.94
2022-12-20T04:43:06.499Z,100660.53
2022-12-20T04:45:34.274Z,100652.38
2022-12-20T04:48:21.164Z,100653.56
2022-12-20T04:50:50.027Z,100652.72
2022-12-20T04:53:35.453Z,100638.09
2022-12-20T04:56:03.413Z,100638.94
2022-12-20T04:58:31.212Z,100628.94
2022-12-20T05:00:59.014Z,100621.44
2022-12-20T05:03:26.823Z,100630.63
2022-12-20T05:05:54.632Z,100629.59
2022-12-20T05:08:22.670Z,100630.63
2022-12-20T05:10:50.425Z,100620.78
2022-12-20T05:13:18.242Z,100620.94
2022-12-20T05:15:46.093Z,100611.94
2022-12-20T05:18:13.904Z,100624.00
2022-12-20T05:20:41.683Z,100622.47
2022-12-20T05:23:27.362Z,100619.06
2022-12-20T05:28:25.680Z,100631.97
2022-12-20T05:30:53.499Z,100626.88
2022-12-20T05:33:21.320Z,100627.06
2022-12-20T05:35:49.063Z,100625.19
2022-12-20T05:38:16.840Z,100619.75
2022-12-20T05:40:44.585Z,100613.47
2022-12-20T05:43:12.380Z,100617.19
2022-12-20T05:45:40.095Z,100621.63
2022-12-20T05:48:07.834Z,100610.94
2022-12-20T05:50:35.694Z,100613.47
2022-12-20T05:53:09.072Z,100621.63
2022-12-20T05:55:40.567Z,100619.75
2022-12-20T05:58:08.931Z,100610.41
2022-12-20T06:00:37.473Z,100621.63
2022-12-20T06:03:05.501Z,100616.34
2022-12-20T06:05:33.375Z,100612.63
2022-12-20T06:08:01.196Z,100616.19
2022-12-20T06:10:29.241Z,100618.91
2022-12-20T06:12:57.031Z,100615.16
2022-12-20T06:15:24.807Z,100626.03
2022-12-20T06:17:52.600Z,100625.19
2022-12-20T06:20:20.363Z,100622.47
2022-12-20T06:22:48.164Z,100616.00
2022-12-20T06:25:16.270Z,100602.25
2022-12-20T06:27:44.042Z,100606.84
2022-12-20T06:30:11.891Z,100612.28
2022-12-20T06:32:39.770Z,100611.25
2022-12-20T06:35:07.585Z,100612.94
2022-12-20T06:37:36.301Z,100625.53
2022-12-20T06:40:04.586Z,100628.06
2022-12-20T06:42:32.356Z,100623.50
2022-12-20T06:45:00.159Z,100618.91
2022-12-20T06:47:27.944Z,100620.78
2022-12-20T06:49:55.681Z,100612.63
2022-12-20T06:52:23.483Z,100607.34
2022-12-20T06:54:53.711Z,100599.88
2022-12-20T06:57:21.554Z,100585.59
2022-12-20T06:59:49.373Z,100590.00
2022-12-20T07:02:17.368Z,100595.28
2022-12-20T07:04:45.251Z,100610.75
2022-12-20T07:07:13.081Z,100619.06
2022-12-20T07:09:41.603Z,100633.50
2022-12-20T07:12:09.385Z,100635.38
2022-12-20T07:14:37.239Z,100639.13
2022-12-20T07:17:05.131Z,100631.97
2022-12-20T07:19:33.002Z,100636.56
2022-12-20T07:22:00.783Z,100652.03
2022-12-20T07:24:28.587Z,100654.06
2022-12-20T07:26:56.426Z,100650.66
2022-12-20T07:29:24.291Z,100657.81
2022-12-20T07:31:54.037Z,100660.53
2022-12-20T07:34:22.059Z,100648.13
2022-12-20T07:36:50.448Z,100650.66
2022-12-20T07:39:19.373Z,100648.97
2022-12-20T07:41:47.252Z,100646.94
2022-12-20T07:44:15.081Z,100640.66
2022-12-20T07:46:42.891Z,100640.31
2022-12-20T07:49:10.762Z,100644.91
2022-12-20T07:51:38.564Z,100645.56
2022-12-20T07:54:06.344Z,100654.59
2022-12-20T07:56:39.233Z,100654.41
2022-12-20T07:59:09.129Z,100668.00
2022-12-20T08:01:37.002Z,100655.25
2022-12-20T08:04:05.703Z,100656.97
2022-12-20T08:06:33.605Z,100653.41
2022-12-20T08:09:01.368Z,100651.69
2022-12-20T08:11:29.168Z,100647.28
2022-12-20T08:13:58.305Z,100639.47
2022-12-20T08:16:26.507Z,100638.59
2022-12-20T08:18:54.377Z,100633.34
2022-12-20T08:21:22.163Z,100634.03
2022-12-20T08:23:50.012Z,100638.94
2022-12-20T08:26:17.825Z,100639.97
2022-12-20T08:28:45.605Z,100625.53
2022-12-20T08:31:13.971Z,100620.13
2022-12-20T08:33:41.914Z,100638.25
2022-12-20T08:36:12.296Z,100632.00
2022-12-20T08:38:40.151Z,100629.28
2022-12-20T08:41:07.966Z,100619.44
2022-12-20T08:43:35.982Z,100627.59
2022-12-20T08:46:03.859Z,100634.69
2022-12-20T08:48:32.550Z,100617.56
2022-12-20T08:51:01.115Z,100618.38
2022-12-20T08:53:29.515Z,100623.84
2022-12-20T08:55:57.280Z,100633.84
2022-12-20T08:58:25.029Z,100633.03
2022-12-20T09:00:52.879Z,100623.00
2022-12-20T09:03:20.813Z,100632.00
2022-12-20T09:05:48.880Z,100632.19
2022-12-20T09:08:16.909Z,100627.94
2022-12-20T09:10:44.680Z,100633.03
2022-12-20T09:13:12.436Z,100630.47
2022-12-20T09:15:40.245Z,100627.75
2022-12-20T09:18:08.075Z,100635.72
2022-12-20T09:20:35.868Z,100634.22
2022-12-20T09:23:03.679Z,100656.78
2022-12-20T09:25:31.464Z,100642.53
2022-12-20T09:27:59.434Z,100640.84
2022-12-20T09:30:27.188Z,100645.09
2022-12-20T09:32:54.986Z,100628.94
2022-12-20T09:35:23.177Z,100632.50
2022-12-20T09:37:51.363Z,100638.81
2022-12-20T09:40:19.555Z,100627.25
2022-12-20T09:42:47.312Z,100618.75
2022-12-20T09:45:15.256Z,100612.28
2022-12-20T09:47:43.373Z,100608.91
2022-12-20T09:50:11.265Z,100603.47
2022-12-20T09:52:39.148Z,100614.34
2022-12-20T09:55:07.037Z,100609.91
2022-12-20T09:57:34.790Z,100602.78
2022-12-20T10:00:02.602Z,100597.16
2022-12-20T10:05:18.299Z,100586.47
2022-12-20T10:07:46.950Z,100590.19
2022-12-20T10:10:14.772Z,100584.75
2022-12-20T10:12:42.623Z,100565.91
2022-12-20T10:15:11.459Z,100547.72
2022-12-20T10:17:39.325Z,100544.19
2022-12-20T10:20:08.554Z,100543.34
2022-12-20T10:22:36.399Z,100532.47
2022-12-20T10:25:04.237Z,100534.50
2022-12-20T10:27:32.116Z,100533.47
2022-12-20T10:29:59.944Z,100526.00
2022-12-20T10:32:28.302Z,100528.03
2022-12-20T10:34:56.320Z,100526.16
2022-12-20T10:37:24.143Z,100531.59
2022-12-20T10:39:51.936Z,100528.03
2022-12-20T10:42:19.797Z,100529.06
2022-12-20T10:44:47.647Z,100518.19
2022-12-20T10:47:15.412Z,100522.59
2022-12-20T10:49:43.143Z,100513.44
2022-12-20T10:52:11.128Z,100528.72
2022-12-20T10:54:38.918Z,100533.31
2022-12-20T10:57:10.492Z,100521.59
2022-12-20T10:59:40.941Z,100513.44
2022-12-20T11:02:08.823Z,100506.97
2022-12-20T11:04:36.849Z,100510.72
2022-12-20T11:07:04.685Z,100514.44
2022-12-20T11:09:32.455Z,100526.34
2022-12-20T11:12:00.363Z,100517.34
2022-12-20T11:14:32.753Z,100517.50
2022-12-20T11:17:05.979Z,100504.25
2022-12-20T11:19:33.753Z,100503.22
2022-12-20T11:22:01.520Z,100514.09
2022-12-20T11:24:29.289Z,100504.25
2022-12-20T11:26:57.114Z,100516.81
2022-12-20T11:29:24.911Z,100499.88
2022-12-20T11:31:52.827Z,100494.25
2022-12-20T11:34:20.665Z,100491.72
2022-12-20T11:36:49.435Z,100497.81
2022-12-20T11:39:17.172Z,100501.56
2022-12-20T11:41:44.937Z,100520.56
2022-12-20T11:44:25.440Z,100509.69
2022-12-20T11:46:53.956Z,100503.44
2022-12-20T11:49:21.671Z,100499.69
2022-12-20T11:51:49.870Z,100498.84
2022-12-20T11:54:17.681Z,100484.41
2022-12-20T11:56:45.578Z,100478.78
2022-12-20T11:59:13.571Z,100489.66
2022-12-20T12:01:41.499Z,100477.94
2022-12-20T12:04:09.436Z,100474.22
2022-12-20T12:06:37.183Z,100456.03
2022-12-20T12:09:04.980Z,100470.63
2022-12-20T12:12:05.115Z,100471.31
2022-12-20T12:14:20.787Z,100464.00
2022-12-20T12:16:48.586Z,100459.44
2022-12-20T12:19:16.850Z,100452.28
2022-12-20T12:21:44.755Z,100444.13
2022-12-20T12:24:12.518Z,100442.09
2022-12-20T12:26:41.037Z,100436.66
2022-12-20T12:29:08.942Z,100425.78
2022-12-20T12:31:37.325Z,100434.78
2022-12-20T12:34:05.133Z,100433.94
2022-12-20T12:36:33.160Z,100423.06
2022-12-20T12:39:02.590Z,100417.78
2022-12-20T12:41:30.589Z,100423.41
2022-12-20T12:43:58.406Z,100411.03
2022-12-20T12:46:26.296Z,100411.88
2022-12-20T12:48:54.233Z,100403.03
2022-12-20T12:51:21.986Z,100397.59
2022-12-20T12:53:49.842Z,100405.94
2022-12-20T12:56:42.175Z,100399.47
2022-12-20T12:59:05.416Z,100397.97
2022-12-20T13:01:33.366Z,100404.22
2022-12-20T13:04:01.236Z,100413.22
2022-12-20T13:06:29.262Z,100408.00
2022-12-20T13:08:57.141Z,100405.06
2022-12-20T13:11:24.935Z,100397.97
2022-12-20T13:13:52.730Z,100393.56
2022-12-20T13:16:20.576Z,100396.28
2022-12-20T13:18:48.341Z,100405.28
2022-12-20T13:21:16.213Z,100403.41
2022-12-20T13:23:44.010Z,100400.69
2022-12-20T13:26:11.821Z,100405.06
2022-12-20T13:28:39.558Z,100413.22
2022-12-20T13:31:07.407Z,100410.50
2022-12-20T13:33:35.226Z,100409.66
2022-12-20T13:36:03.089Z,100398.81
2022-12-20T13:38:30.857Z,100387.94
2022-12-20T13:40:58.705Z,100384.53
2022-12-20T13:43:26.517Z,100388.13
2022-12-20T13:45:54.352Z,100388.78
2022-12-20T13:48:22.359Z,100375.38
2022-12-20T13:50:50.885Z,100372.47
2022-12-20T13:53:18.648Z,100368.75
2022-12-20T13:55:46.387Z,100366.03
2022-12-20T13:58:14.245Z,100356.84
2022-12-20T14:00:42.085Z,100359.56
2022-12-20T14:03:09.971Z,100373.16
2022-12-20T14:05:37.889Z,100369.75
2022-12-20T14:08:05.668Z,100367.03
2022-12-20T14:10:33.441Z,100354.47
2022-12-20T14:13:01.638Z,100353.81
2022-12-20T14:15:29.467Z,100353.13
2022-12-20T14:17:57.303Z,100348.56
2022-12-20T14:20:25.149Z,100355.84
2022-12-20T14:22:52.953Z,100355.00
2022-12-20T14:25:21.232Z,100350.59
2022-12-20T14:27:48.989Z,100350.41
2022-12-20T14:30:16.802Z,100343.13
2022-12-20T14:32:44.629Z,100343.47
2022-12-20T14:35:12.462Z,100350.75
2022-12-20T14:37:41.306Z,100345.66
2022-12-20T14:40:09.324Z,100333.59
2022-12-20T14:42:37.344Z,100343.94
2022-12-20T14:45:05.196Z,100340.19
2022-12-20T14:47:33.055Z,100338.50
2022-12-20T14:50:00.875Z,100342.59
2022-12-20T14:52:28.641Z,100348.38
2022-12-20T14:55:12.741Z,100356.16
2022-12-20T14:57:40.550Z,100344.72
2022-12-20T15:00:09.475Z,100342.78
2022-12-20T15:02:37.591Z,100336.13
2022-12-20T15:05:05.639Z,100325.38
2022-12-20T15:07:33.464Z,100321.66
2022-12-20T15:10:01.265Z,100313.94
2022-12-20T15:12:29.102Z,100322.41
2022-12-20T15:15:03.676Z,100325.75
2022-12-20T15:17:44.582Z,100302.75
2022-12-20T15:20:12.366Z,100308.84
2022-12-20T15:22:40.144Z,100313.94
2022-12-20T15:25:07.919Z,100311.69
2022-12-20T15:27:35.684Z,100310.53
2022-12-20T15:30:03.644Z,100307.75
2022-12-20T15:32:32.168Z,100315.63
2022-12-20T15:34:59.980Z,100307.47
2022-12-20T15:37:27.800Z,100302.56
2022-12-20T15:39:55.578Z,100309.44
2022-12-20T15:42:23.392Z,100297.09
2022-12-20T15:44:51.203Z,100298.31
2022-12-20T15:47:18.942Z,100297.66
2022-12-20T15:49:50.483Z,100287.13
2022-12-20T15:52:18.580Z,100282.53
2022-12-20T15:54:46.437Z,100283.69
2022-12-20T15:57:14.247Z,100282.44
2022-12-20T15:59:59.913Z,100277.56
2022-12-20T16:02:29.054Z,100267.09
2022-12-20T16:04:57.687Z,100270.78
2022-12-20T16:07:25.508Z,100262.56
2022-12-20T16:09:53.939Z,100265.94
2022-12-20T16:12:21.695Z,100276.91
2022-12-20T16:14:49.485Z,100274.56
2022-12-20T16:17:17.640Z,100274.44
2022-12-20T16:19:45.437Z,100266.59
2022-12-20T16:22:13.209Z,100272.03
2022-12-20T16:24:41.086Z,100275.16
2022-12-20T16:27:08.989Z,100279.72
2022-12-20T16:29:36.849Z,100269.16
2022-12-20T16:32:08.116Z,100278.97
2022-12-20T16:34:36.260Z,100269.91
2022-12-20T16:37:04.971Z,100260.53
2022-12-20T16:39:32.809Z,100263.53
2022-12-20T16:42:01.807Z,100263.97
2022-12-20T16:44:29.655Z,100268.59
2022-12-20T16:46:57.564Z,100245.06
2022-12-20T16:49:25.415Z,100243.78
2022-12-20T16:51:53.264Z,100245.50
2022-12-20T16:54:21.552Z,100253.03
2022-12-20T16:56:51.176Z,100254.19
2022-12-20T16:59:21.663Z,100264.19
2022-12-20T17:01:50.315Z,100253.44
2022-12-20T17:04:18.559Z,100249.56
2022-12-20T17:06:46.773Z,100254.94
2022-12-20T17:09:16.247Z,100244.75
2022-12-20T17:11:44.184Z,100243.97
2022-12-20T17:14:12.929Z,100240.63
2022-12-20T17:16:41.030Z,100239.19
2022-12-20T17:19:08.945Z,100231.81
2022-12-20T17:24:22.383Z,100245.34
2022-12-20T17:26:51.491Z,100244.91
2022-12-20T17:29:24.591Z,100239.81
2022-12-20T17:31:59.310Z,100233.69
2022-12-20T17:34:39.211Z,100241.63
2022-12-20T17:39:57.539Z,100244.69
2022-12-20T17:42:30.836Z,100264.59
2022-12-20T17:44:59.725Z,100255.69
2022-12-20T17:47:27.454Z,100254.56
2022-12-20T17:49:55.257Z,100243.91
2022-12-20T17:52:23.109Z,100245.78
2022-12-20T17:54:50.940Z,100245.53
2022-12-20T17:57:18.677Z,100249.09
2022-12-20T17:59:46.933Z,100255.19
2022-12-20T18:02:37.109Z,100260.78
2022-12-20T18:08:22.919Z,100268.81
2022-12-20T18:11:09.935Z,100270.25
2022-12-20T18:13:56.549Z,100261.69
2022-12-20T18:16:57.384Z,100269.22
2022-12-20T18:19:47.971Z,100240.69
2022-12-20T18:22:24.999Z,100238.84
2022-12-20T18:24:52.739Z,100248.09
2022-12-20T18:27:23.882Z,100230.94
2022-12-20T18:29:56.443Z,100228.94
2022-12-20T18:32:25.016Z,100230.75
2022-12-20T18:34:52.809Z,100239.50
2022-12-20T18:37:20.904Z,100247.31
2022-12-20T18:39:48.710Z,100254.69
2022-12-20T18:42:16.755Z,100235.88
2022-12-20T18:44:44.620Z,100236.47
2022-12-20T18:47:12.373Z,100238.13
2022-12-20T18:49:40.187Z,100238.97
2022-12-20T18:52:07.970Z,100240.88
2022-12-20T18:54:35.745Z,100224.97
2022-12-20T18:57:05.899Z,100226.00
2022-12-20T18:59:33.761Z,100219.47
2022-12-20T19:02:01.679Z,100200.81
2022-12-20T19:04:29.538Z,100216.19
2022-12-20T19:06:57.257Z,100212.56
2022-12-20T19:09:24.963Z,100203.34
2022-12-20T19:11:57.079Z,100216.47
2022-12-20T19:14:25.268Z,100200.41
2022-12-20T19:16:53.170Z,100203.34
2022-12-20T19:19:21.538Z,100195.91
2022-12-20T19:22:04.753Z,100206.84
2022-12-20T19:24:32.653Z,100203.72
2022-12-20T19:27:00.434Z,100210.03
2022-12-20T19:29:28.242Z,100220.63
2022-12-20T19:31:56.110Z,100217.81
2022-12-20T19:34:24.142Z,100207.94
2022-12-20T19:36:52.952Z,100203.63
2022-12-20T19:39:23.253Z,100208.91
2022-12-20T19:42:21.636Z,100229.13
2022-12-20T19:44:39.036Z,100223.53
2022-12-20T19:47:06.957Z,100218.22
2022-12-20T19:49:37.834Z,100203.16
2022-12-20T19:52:08.974Z,100194.88
2022-12-20T19:54:37.088Z,100198.09
2022-12-20T19:57:06.253Z,100187.19
2022-12-20T19:59:34.312Z,100188.72
2022-12-20T20:02:02.261Z,100192.59
2022-12-20T20:04:30.395Z,100198.88
2022-12-20T20:06:58.341Z,100197.44
2022-12-20T20:09:27.211Z,100184.63
2022-12-20T20:11:55.219Z,100182.50
2022-12-20T20:14:30.654Z,100200.13
2022-12-20T20:17:00.422Z,100190.88
2022-12-20T20:19:28.241Z,100182.13
2022-12-20T20:21:58.798Z,100184.28
2022-12-20T20:24:26.600Z,100190.91
2022-12-20T20:26:54.493Z,100197.56
2022-12-20T20:29:22.359Z,100190.25
2022-12-20T20:31:50.235Z,100190.97
2022-12-20T20:34:18.160Z,100181.44
2022-12-20T20:36:45.953Z,100182.16
2022-12-20T20:39:13.753Z,100175.69
2022-12-20T20:41:42.808Z,100172.63
2022-12-20T20:44:11.854Z,100171.75
2022-12-20T20:46:39.742Z,100165.13
2022-12-20T20:49:07.608Z,100161.69
2022-12-20T20:51:35.429Z,100169.34
2022-12-20T20:54:03.176Z,100165.22
2022-12-20T20:56:33.943Z,100173.72
2022-12-20T20:59:06.123Z,100165.50
2022-12-20T21:01:36.442Z,100160.88
2022-12-20T21:04:04.474Z,100148.66
2022-12-20T21:06:39.794Z,100153.75
2022-12-20T21:09:09.167Z,100158.56
2022-12-20T21:11:37.645Z,100157.28
2022-12-20T21:14:05.652Z,100157.28
2022-12-20T21:16:33.652Z,100149.66
2022-12-20T21:19:01.444Z,100144.59
2022-12-20T21:21:29.377Z,100154.25
2022-12-20T21:23:57.155Z,100144.53
2022-12-20T21:26:25.346Z,100140.28
2022-12-20T21:28:53.272Z,100135.19
2022-12-20T21:31:28.488Z,100132.84
2022-12-20T21:33:56.833Z,100138.41
2022-12-20T21:36:24.695Z,100146.78
2022-12-20T21:38:52.506Z,100145.94
2022-12-20T21:41:20.331Z,100143.34
2022-12-20T21:43:48.181Z,100134.91
2022-12-20T21:46:16.187Z,100138.63
2022-12-20T21:48:43.987Z,100135.69
2022-12-20T21:51:11.823Z,100132.72
2022-12-20T21:53:39.650Z,100131.00
2022-12-20T21:56:07.544Z,100135.53
2022-12-20T21:58:35.360Z,100132.56
2022-12-20T22:01:10.368Z,100128.53
2022-12-20T22:03:38.636Z,100135.84
2022-12-20T22:06:06.666Z,100146.47
2022-12-20T22:08:34.538Z,100150.63
2022-12-20T22:11:02.354Z,100149.53
2022-12-20T22:13:32.055Z,100149.91
2022-12-20T22:16:09.565Z,100146.72
2022-12-20T22:18:37.303Z,100144.59
2022-12-20T22:21:05.300Z,100145.84
2022-12-20T22:23:33.040Z,100135.97
2022-12-20T22:26:00.983Z,100141.81
2022-12-20T22:28:28.866Z,100150.38
2022-12-20T22:30:56.637Z,100147.41
2022-12-20T22:33:24.441Z,100141.50
2022-12-20T22:35:52.209Z,100144.59
2022-12-20T22:38:20.023Z,100158.44
2022-12-20T22:40:47.855Z,100161.72
2022-12-20T22:43:15.603Z,100162.13
2022-12-20T22:45:43.526Z,100161.63
2022-12-20T22:48:11.400Z,100155.34
2022-12-20T22:50:39.303Z,100154.91
2022-12-20T22:53:07.089Z,100155.28
2022-12-20T22:55:34.908Z,100141.84
2022-12-20T22:58:02.781Z,100145.81
2022-12-20T23:00:30.522Z,100158.78
2022-12-20T23:02:58.555Z,100147.25
2022-12-20T23:05:26.783Z,100138.41
2022-12-20T23:07:54.540Z,100134.19
2022-12-20T23:10:39.618Z,100142.53
2022-12-20T23:13:24.717Z,100128.25
2022-12-20T23:15:52.513Z,100124.88
2022-12-20T23:18:20.289Z,100124.88
2022-12-20T23:21:05.350Z,100133.41
2022-12-20T23:23:33.155Z,100128.34
2022-12-20T23:26:01.067Z,100128.34
2022-12-20T23:28:33.558Z,100121.88
2022-12-20T23:31:03.353Z,100122.25
2022-12-20T23:33:31.544Z,100128.75
2022-12-20T23:35:59.592Z,100124.72
2022-12-20T23:38:27.373Z,100118.41
2022-12-20T23:40:55.337Z,100125.09
2022-12-20T23:43:23.098Z,100117.97
2022-12-20T23:45:50.930Z,100120.69
2022-12-20T23:48:18.843Z,100111.84
2022-12-20T23:50:46.651Z,100101.19
2022-12-20T23:53:14.643Z,100104.06
2022-12-20T23:55:42.379Z,100097.78
2022-12-20T23:58:10.228Z,100100.69
